Time;durP1;ratioP1;P1;durP2;ratioP2;P2;SDS_P1;SDS_P2;PMS_P1;PMS_P2;Temp;Humidity;BMP_temperature;BMP_pressure;BME280_temperature;BME280_humidity;BME280_pressure;Samples;Min_cycle;Max_cycle;Signal;HPM_P1;HPM_P2
2024/01/09 00:00:54;;;;;;;12.05;11.52;;;;;;;;;;6160119;28;20513;-96
2024/01/09 00:03:56;;;;;;;12.23;11.45;;;;;;;;;;6146171;28;20130;-96
2024/01/09 00:07:01;;;;;;;14.88;14.30;;;;;;;;;;6138508;28;20129;-96
2024/01/09 00:10:03;;;;;;;14.15;13.55;;;;;;;;;;6145640;28;20043;-96
2024/01/09 00:13:05;;;;;;;14.70;14.00;;;;;;;;;;6148490;28;20126;-96
2024/01/09 00:16:08;;;;;;;12.95;12.35;;;;;;;;;;6140541;28;20051;-96
2024/01/09 00:19:09;;;;;;;11.88;11.38;;;;;;;;;;6129924;28;20476;-96
2024/01/09 00:22:12;;;;;;;11.90;11.40;;;;;;;;;;6145761;28;20043;-96
2024/01/09 00:25:16;;;;;;;12.32;11.52;;;;;;;;;;6149406;28;20046;-96
2024/01/09 00:28:18;;;;;;;16.95;16.15;;;;;;;;;;6145480;28;20125;-96
2024/01/09 00:31:20;;;;;;;11.80;11.40;;;;;;;;;;6145034;28;20043;-96
2024/01/09 00:34:22;;;;;;;14.10;13.07;;;;;;;;;;6145621;28;20122;-96
2024/01/09 00:37:24;;;;;;;16.60;15.68;;;;;;;;;;6159536;28;20524;-96
2024/01/09 00:40:26;;;;;;;18.67;17.85;;;;;;;;;;6141529;28;20105;-96
2024/01/09 00:43:28;;;;;;;19.20;18.20;;;;;;;;;;6145036;28;20051;-96
2024/01/09 00:46:30;;;;;;;18.35;17.15;;;;;;;;;;6155335;28;20035;-96
2024/01/09 00:49:32;;;;;;;20.25;19.42;;;;;;;;;;6145318;28;20046;-96
2024/01/09 00:52:34;;;;;;;28.95;27.33;;;;;;;;;;6142091;28;20051;-96
2024/01/09 00:55:35;;;;;;;17.10;16.30;;;;;;;;;;6137018;28;20051;-96
2024/01/09 00:58:37;;;;;;;14.68;14.07;;;;;;;;;;6139107;28;20150;-96
2024/01/09 01:01:39;;;;;;;20.65;19.75;;;;;;;;;;6143756;28;20032;-96
2024/01/09 01:04:42;;;;;;;17.13;16.15;;;;;;;;;;6145145;28;20062;-96
2024/01/09 01:07:44;;;;;;;20.35;19.35;;;;;;;;;;6142505;28;20066;-96
2024/01/09 01:10:46;;;;;;;19.95;19.15;;;;;;;;;;6147427;28;20047;-96
2024/01/09 01:13:48;;;;;;;13.18;12.60;;;;;;;;;;6147431;28;20130;-96
2024/01/09 01:16:50;;;;;;;18.48;17.52;;;;;;;;;;6140445;29;20047;-96
2024/01/09 01:19:52;;;;;;;25.13;23.98;;;;;;;;;;6155860;28;20063;-96
2024/01/09 01:22:54;;;;;;;22.17;21.23;;;;;;;;;;6132787;29;20481;-96
2024/01/09 01:25:56;;;;;;;19.90;19.08;;;;;;;;;;6148768;28;20047;-96
2024/01/09 01:28:58;;;;;;;18.70;17.88;;;;;;;;;;6143725;28;20494;-96
2024/01/09 01:32:01;;;;;;;21.30;20.15;;;;;;;;;;6152115;28;20040;-96
2024/01/09 01:35:03;;;;;;;31.20;29.95;;;;;;;;;;6148310;28;20043;-96
2024/01/09 01:38:05;;;;;;;21.92;20.83;;;;;;;;;;6146224;29;20054;-96
2024/01/09 01:41:07;;;;;;;27.85;26.35;;;;;;;;;;6145758;28;20054;-96
2024/01/09 01:44:14;;;;;;;16.70;15.80;;;;;;;;;;6149540;28;20059;-96
2024/01/09 01:47:18;;;;;;;24.38;23.15;;;;;;;;;;6142689;28;20545;-96
2024/01/09 01:50:20;;;;;;;24.30;23.40;;;;;;;;;;6149932;28;20112;-96
2024/01/09 01:53:22;;;;;;;26.88;25.77;;;;;;;;;;6143051;28;20047;-96
2024/01/09 01:56:24;;;;;;;28.27;27.17;;;;;;;;;;6152725;28;20054;-96
2024/01/09 01:59:28;;;;;;;27.85;25.67;;;;;;;;;;6147851;28;20124;-96
2024/01/09 02:02:30;;;;;;;25.00;23.98;;;;;;;;;;6148796;28;20059;-96
2024/01/09 02:05:33;;;;;;;18.52;17.27;;;;;;;;;;6148677;28;20043;-96
2024/01/09 02:08:35;;;;;;;18.20;17.50;;;;;;;;;;6144469;28;20410;-96
2024/01/09 02:11:37;;;;;;;23.42;22.42;;;;;;;;;;6162668;28;20082;-96
2024/01/09 02:14:40;;;;;;;28.17;27.13;;;;;;;;;;6149913;28;20130;-96
2024/01/09 02:17:42;;;;;;;20.15;18.88;;;;;;;;;;6148890;28;20497;-96
2024/01/09 02:20:44;;;;;;;26.08;25.17;;;;;;;;;;6151115;28;20043;-96
2024/01/09 02:23:48;;;;;;;30.77;29.58;;;;;;;;;;6153585;28;20054;-96
2024/01/09 02:26:54;;;;;;;19.13;18.27;;;;;;;;;;6155158;28;20050;-96
2024/01/09 02:30:06;;;;;;;28.00;26.42;;;;;;;;;;6144060;28;20122;-96
2024/01/09 02:33:08;;;;;;;19.27;17.80;;;;;;;;;;6146581;28;20047;-96
2024/01/09 02:36:11;;;;;;;20.92;19.92;;;;;;;;;;6150099;28;20075;-96
2024/01/09 02:39:12;;;;;;;14.10;13.43;;;;;;;;;;6152868;29;20045;-96
2024/01/09 02:42:15;;;;;;;13.55;12.43;;;;;;;;;;6155259;28;20544;-96
2024/01/09 02:45:17;;;;;;;13.90;13.27;;;;;;;;;;6143301;28;20490;-96
2024/01/09 02:48:19;;;;;;;10.60;9.63;;;;;;;;;;6155461;28;20043;-96
2024/01/09 02:51:21;;;;;;;9.43;9.00;;;;;;;;;;6154626;28;20480;-96
2024/01/09 02:54:23;;;;;;;10.70;10.30;;;;;;;;;;6164759;28;20054;-96
2024/01/09 02:57:25;;;;;;;15.52;14.65;;;;;;;;;;6158806;28;20474;-96
2024/01/09 03:00:27;;;;;;;17.55;16.60;;;;;;;;;;6156355;28;20070;-96
2024/01/09 03:03:29;;;;;;;17.80;16.95;;;;;;;;;;6157495;28;20087;-96
2024/01/09 03:06:31;;;;;;;11.93;11.20;;;;;;;;;;6151136;29;20497;-96
2024/01/09 03:09:35;;;;;;;10.25;9.65;;;;;;;;;;6158149;28;20039;-96
2024/01/09 03:12:38;;;;;;;9.18;8.57;;;;;;;;;;6160782;28;20266;-96
2024/01/09 03:15:40;;;;;;;8.07;7.60;;;;;;;;;;6162676;28;20043;-96
2024/01/09 03:18:43;;;;;;;8.25;7.65;;;;;;;;;;6160317;28;20047;-96
2024/01/09 03:21:46;;;;;;;9.25;8.40;;;;;;;;;;6163293;28;20098;-96
2024/01/09 03:24:48;;;;;;;8.95;8.45;;;;;;;;;;6159054;28;20055;-96
2024/01/09 03:27:52;;;;;;;8.98;8.27;;;;;;;;;;6160400;28;20070;-96
2024/01/09 03:30:54;;;;;;;8.32;7.80;;;;;;;;;;6160100;28;20039;-96
2024/01/09 03:33:57;;;;;;;9.82;7.90;;;;;;;;;;6155223;28;20058;-96
2024/01/09 03:36:59;;;;;;;9.00;8.38;;;;;;;;;;6162601;28;20027;-96
2024/01/09 03:40:01;;;;;;;10.63;10.02;;;;;;;;;;6164157;28;20047;-96
2024/01/09 03:43:06;;;;;;;7.88;7.57;;;;;;;;;;6162609;28;20035;-96
2024/01/09 03:46:08;;;;;;;8.68;8.02;;;;;;;;;;6153232;28;20051;-96
2024/01/09 03:49:11;;;;;;;8.32;7.57;;;;;;;;;;6164981;28;20110;-96
2024/01/09 03:52:13;;;;;;;9.05;8.63;;;;;;;;;;6164564;28;20055;-96
2024/01/09 03:55:16;;;;;;;7.85;7.40;;;;;;;;;;6167043;28;20039;-96
2024/01/09 03:58:17;;;;;;;8.05;7.68;;;;;;;;;;6148319;29;20110;-96
2024/01/09 04:01:20;;;;;;;6.85;6.55;;;;;;;;;;6163827;28;20071;-96
2024/01/09 04:04:22;;;;;;;8.82;8.23;;;;;;;;;;6163853;28;20154;-96
2024/01/09 04:07:27;;;;;;;8.20;7.88;;;;;;;;;;6167664;28;20055;-96
2024/01/09 04:10:30;;;;;;;8.32;7.68;;;;;;;;;;6167392;28;20079;-96
2024/01/09 04:13:31;;;;;;;7.93;7.53;;;;;;;;;;6164869;28;20482;-96
2024/01/09 04:16:34;;;;;;;7.80;7.43;;;;;;;;;;6168207;28;20044;-96
2024/01/09 04:19:42;;;;;;;8.63;7.85;;;;;;;;;;6163402;28;20055;-96
2024/01/09 04:22:45;;;;;;;8.25;7.82;;;;;;;;;;6174595;28;20494;-96
2024/01/09 04:25:48;;;;;;;7.80;7.40;;;;;;;;;;6170146;28;20043;-96
2024/01/09 04:28:53;;;;;;;8.52;8.13;;;;;;;;;;6169828;28;20043;-96
2024/01/09 04:31:55;;;;;;;9.25;8.57;;;;;;;;;;6170797;28;20046;-96
2024/01/09 04:35:01;;;;;;;8.85;8.43;;;;;;;;;;6177364;28;20059;-96
2024/01/09 04:38:03;;;;;;;8.52;7.78;;;;;;;;;;6192783;28;20051;-96
2024/01/09 04:41:13;;;;;;;9.95;9.38;;;;;;;;;;6179377;28;20043;-96
2024/01/09 04:44:16;;;;;;;10.13;9.63;;;;;;;;;;6169720;28;20027;-96
2024/01/09 04:47:18;;;;;;;8.70;8.15;;;;;;;;;;6185260;28;20130;-96
2024/01/09 04:50:22;;;;;;;6.85;6.65;;;;;;;;;;6158602;28;20114;-96
2024/01/09 04:53:30;;;;;;;8.35;8.05;;;;;;;;;;6167656;28;20051;-96
2024/01/09 04:56:32;;;;;;;10.40;9.75;;;;;;;;;;6173375;28;20053;-96
2024/01/09 04:59:35;;;;;;;9.45;8.80;;;;;;;;;;6174399;29;20039;-96
2024/01/09 05:02:40;;;;;;;10.02;9.27;;;;;;;;;;6175326;28;20147;-96
2024/01/09 05:05:46;;;;;;;7.47;7.13;;;;;;;;;;6172242;28;20038;-96
2024/01/09 05:08:48;;;;;;;8.52;8.23;;;;;;;;;;6172163;28;20062;-96
2024/01/09 05:11:54;;;;;;;7.15;6.85;;;;;;;;;;6171146;28;20055;-96
2024/01/09 05:14:56;;;;;;;8.15;7.75;;;;;;;;;;6173480;28;20076;-96
2024/01/09 05:18:00;;;;;;;7.80;7.30;;;;;;;;;;6176621;28;20054;-96
2024/01/09 05:21:08;;;;;;;7.63;7.32;;;;;;;;;;6180441;28;20076;-96
2024/01/09 05:24:13;;;;;;;9.63;9.13;;;;;;;;;;6176971;29;20043;-96
2024/01/09 05:27:15;;;;;;;9.27;8.88;;;;;;;;;;6178633;28;20027;-96
2024/01/09 05:30:20;;;;;;;9.18;8.80;;;;;;;;;;6176295;28;20058;-96
2024/01/09 05:33:27;;;;;;;7.90;7.38;;;;;;;;;;6176559;28;20051;-96
2024/01/09 05:36:32;;;;;;;8.85;8.45;;;;;;;;;;6171278;29;20111;-96
2024/01/09 05:39:36;;;;;;;7.30;7.00;;;;;;;;;;6168746;28;20055;-96
2024/01/09 05:42:38;;;;;;;8.82;8.32;;;;;;;;;;6177338;28;20051;-96
2024/01/09 05:45:40;;;;;;;7.85;7.45;;;;;;;;;;6171968;28;20050;-96
2024/01/09 05:48:45;;;;;;;8.77;8.30;;;;;;;;;;6176176;28;20111;-96
2024/01/09 05:51:47;;;;;;;10.15;9.48;;;;;;;;;;6175620;28;20100;-96
2024/01/09 05:54:52;;;;;;;10.25;9.55;;;;;;;;;;6173781;28;20027;-96
2024/01/09 05:57:54;;;;;;;10.02;9.52;;;;;;;;;;6173959;29;20054;-96
2024/01/09 06:00:59;;;;;;;10.65;9.65;;;;;;;;;;6174049;28;20054;-96
2024/01/09 06:04:11;;;;;;;9.80;9.25;;;;;;;;;;6171781;29;20043;-96
2024/01/09 06:07:17;;;;;;;8.48;7.78;;;;;;;;;;6165351;29;20054;-96
2024/01/09 06:10:22;;;;;;;11.15;9.95;;;;;;;;;;6173996;28;20035;-96
2024/01/09 06:13:25;;;;;;;8.57;8.18;;;;;;;;;;6174449;28;20039;-96
2024/01/09 06:16:27;;;;;;;8.88;8.27;;;;;;;;;;6163528;28;20095;-96
2024/01/09 06:19:32;;;;;;;9.23;8.55;;;;;;;;;;6171913;28;20062;-96
2024/01/09 06:22:36;;;;;;;10.15;9.55;;;;;;;;;;6165946;28;20048;-96
2024/01/09 06:25:49;;;;;;;9.70;8.98;;;;;;;;;;6168777;28;20058;-96
2024/01/09 06:28:54;;;;;;;10.35;9.60;;;;;;;;;;6170625;29;20047;-96
2024/01/09 06:31:56;;;;;;;8.30;7.95;;;;;;;;;;6172769;28;20043;-96
2024/01/09 06:34:58;;;;;;;8.10;7.60;;;;;;;;;;6170961;28;20054;-96
2024/01/09 06:38:07;;;;;;;9.48;8.93;;;;;;;;;;6167520;29;20039;-96
2024/01/09 06:41:13;;;;;;;10.00;9.45;;;;;;;;;;6154378;29;20090;-96
2024/01/09 06:44:15;;;;;;;10.65;9.75;;;;;;;;;;6173967;28;20131;-96
2024/01/09 06:47:18;;;;;;;7.68;7.38;;;;;;;;;;6163331;29;20403;-96
2024/01/09 06:50:21;;;;;;;9.88;9.38;;;;;;;;;;6153313;28;20051;-96
2024/01/09 06:57:01;;;;;;;11.25;10.63;;;;;;;;;;6167055;28;20047;-96
2024/01/09 07:00:09;;;;;;;10.43;9.95;;;;;;;;;;6167924;28;20055;-96
2024/01/09 07:03:12;;;;;;;10.05;9.52;;;;;;;;;;6168988;28;20074;-96
2024/01/09 07:06:14;;;;;;;11.05;10.35;;;;;;;;;;6164303;28;20047;-96
2024/01/09 07:09:18;;;;;;;8.73;8.43;;;;;;;;;;6168001;28;20035;-96
2024/01/09 07:12:20;;;;;;;9.80;9.05;;;;;;;;;;6170257;28;20054;-96
2024/01/09 07:15:23;;;;;;;8.80;8.43;;;;;;;;;;6166731;28;20043;-96
2024/01/09 07:18:27;;;;;;;10.02;9.32;;;;;;;;;;6161981;28;20074;-96
2024/01/09 07:21:32;;;;;;;11.45;10.57;;;;;;;;;;6169759;28;20042;-96
2024/01/09 07:24:37;;;;;;;10.70;9.85;;;;;;;;;;6159489;29;20040;-96
2024/01/09 07:27:39;;;;;;;10.90;9.82;;;;;;;;;;6162285;28;20043;-96
2024/01/09 07:30:41;;;;;;;11.15;10.40;;;;;;;;;;6159665;28;20047;-96
2024/01/09 07:33:47;;;;;;;9.60;9.20;;;;;;;;;;6159486;29;20080;-96
2024/01/09 07:36:50;;;;;;;9.32;8.80;;;;;;;;;;6154916;29;20046;-96
2024/01/09 07:39:55;;;;;;;9.68;9.18;;;;;;;;;;6168992;28;20118;-96
2024/01/09 07:42:59;;;;;;;9.07;8.57;;;;;;;;;;6161007;29;20058;-96
2024/01/09 07:46:05;;;;;;;9.20;8.75;;;;;;;;;;6156099;28;20058;-96
2024/01/09 07:49:07;;;;;;;8.55;8.15;;;;;;;;;;6157759;29;20050;-96
2024/01/09 07:52:09;;;;;;;9.40;8.80;;;;;;;;;;6160892;28;20048;-96
2024/01/09 07:55:11;;;;;;;9.27;8.48;;;;;;;;;;6163467;28;20044;-96
2024/01/09 07:58:14;;;;;;;10.43;9.70;;;;;;;;;;6142256;28;20382;-96
2024/01/09 08:01:17;;;;;;;8.40;8.00;;;;;;;;;;6158256;28;20043;-96
2024/01/09 08:04:19;;;;;;;7.55;7.25;;;;;;;;;;6162724;28;20050;-96
2024/01/09 08:07:22;;;;;;;8.93;8.43;;;;;;;;;;6164551;28;20111;-96
2024/01/09 08:10:24;;;;;;;11.30;10.65;;;;;;;;;;6158216;28;20469;-96
2024/01/09 08:13:28;;;;;;;8.70;8.27;;;;;;;;;;6174034;28;20043;-96
2024/01/09 08:16:30;;;;;;;9.30;8.88;;;;;;;;;;6157966;28;20478;-96
2024/01/09 08:19:35;;;;;;;10.25;9.40;;;;;;;;;;6161251;28;20055;-96
2024/01/09 08:22:38;;;;;;;8.05;7.60;;;;;;;;;;6144292;29;20043;-96
2024/01/09 08:25:40;;;;;;;10.15;9.55;;;;;;;;;;6160503;28;20075;-96
2024/01/09 08:28:42;;;;;;;8.55;8.15;;;;;;;;;;6158117;28;20501;-96
2024/01/09 08:31:45;;;;;;;9.27;8.73;;;;;;;;;;6169828;28;20106;-95
2024/01/09 08:34:48;;;;;;;8.18;7.88;;;;;;;;;;6142097;29;20405;-96
2024/01/09 08:37:50;;;;;;;8.88;8.30;;;;;;;;;;6178560;28;20520;-96
2024/01/09 08:40:55;;;;;;;8.60;8.05;;;;;;;;;;6164803;28;20055;-96
2024/01/09 08:43:58;;;;;;;8.73;8.23;;;;;;;;;;6152850;28;20051;-96
2024/01/09 08:47:02;;;;;;;8.70;8.30;;;;;;;;;;6156781;28;20151;-96
2024/01/09 08:50:04;;;;;;;8.30;7.72;;;;;;;;;;6153310;28;20050;-96
2024/01/09 08:53:07;;;;;;;8.90;8.40;;;;;;;;;;6155038;28;20606;-96
2024/01/09 08:56:09;;;;;;;8.73;8.10;;;;;;;;;;6165949;28;20047;-96
2024/01/09 08:59:11;;;;;;;9.63;8.73;;;;;;;;;;6149718;28;20051;-93
2024/01/09 09:02:13;;;;;;;9.80;9.15;;;;;;;;;;6150434;28;20430;-93
2024/01/09 09:05:15;;;;;;;7.75;7.35;;;;;;;;;;6144718;29;20417;-93
2024/01/09 09:08:20;;;;;;;9.40;8.57;;;;;;;;;;6149112;28;20422;-93
2024/01/09 09:11:22;;;;;;;8.68;8.27;;;;;;;;;;6141012;28;20051;-93
2024/01/09 09:14:24;;;;;;;9.77;9.18;;;;;;;;;;6138970;28;20458;-93
2024/01/09 09:17:26;;;;;;;11.75;11.07;;;;;;;;;;6144357;28;20047;-93
2024/01/09 09:20:28;;;;;;;13.23;12.27;;;;;;;;;;6142815;28;20050;-92
2024/01/09 09:23:31;;;;;;;12.38;11.75;;;;;;;;;;6153018;29;20040;-93
2024/01/09 09:26:33;;;;;;;16.90;15.85;;;;;;;;;;6144615;28;20043;-92
2024/01/09 09:29:35;;;;;;;13.20;12.38;;;;;;;;;;6135730;28;20046;-92
2024/01/09 09:32:40;;;;;;;16.70;15.90;;;;;;;;;;6138199;28;20067;-92
2024/01/09 09:35:43;;;;;;;16.23;15.40;;;;;;;;;;6143749;29;20051;-92
2024/01/09 09:38:46;;;;;;;15.32;14.57;;;;;;;;;;6140823;28;20054;-93
2024/01/09 09:41:54;;;;;;;13.65;12.35;;;;;;;;;;6141718;28;20046;-93
2024/01/09 09:45:00;;;;;;;12.85;12.10;;;;;;;;;;6139283;28;20150;-93
2024/01/09 09:48:02;;;;;;;18.08;17.15;;;;;;;;;;6143993;28;20067;-92
2024/01/09 09:51:05;;;;;;;16.42;15.63;;;;;;;;;;6142138;28;20775;-93
2024/01/09 09:54:08;;;;;;;19.02;18.10;;;;;;;;;;6139323;28;20079;-92
2024/01/09 09:57:10;;;;;;;15.88;15.02;;;;;;;;;;6138852;28;20046;-93
2024/01/09 10:00:13;;;;;;;16.30;15.20;;;;;;;;;;6136656;28;20054;-93
2024/01/09 10:03:15;;;;;;;14.00;13.40;;;;;;;;;;6136911;28;20055;-92
2024/01/09 10:06:18;;;;;;;15.75;14.43;;;;;;;;;;6151416;28;20073;-92
2024/01/09 10:09:20;;;;;;;16.17;15.48;;;;;;;;;;6139053;29;20145;-92
2024/01/09 10:12:24;;;;;;;16.80;15.80;;;;;;;;;;6157388;28;20472;-92
2024/01/09 10:15:26;;;;;;;17.42;16.40;;;;;;;;;;6133212;28;20054;-92
2024/01/09 10:18:32;;;;;;;11.85;11.23;;;;;;;;;;6141326;28;20051;-92
2024/01/09 10:21:34;;;;;;;13.77;12.95;;;;;;;;;;6152716;28;20762;-92
2024/01/09 10:24:36;;;;;;;12.77;12.18;;;;;;;;;;6142803;28;20101;-92
2024/01/09 10:27:40;;;;;;;12.35;11.40;;;;;;;;;;6140223;28;20118;-92
2024/01/09 10:30:41;;;;;;;10.73;10.02;;;;;;;;;;6138700;28;20051;-92
2024/01/09 10:33:43;;;;;;;9.93;9.43;;;;;;;;;;6142405;28;20438;-92
2024/01/09 10:36:45;;;;;;;9.50;9.00;;;;;;;;;;6138397;28;20054;-91
2024/01/09 10:39:48;;;;;;;10.80;10.00;;;;;;;;;;6151742;28;20605;-92
2024/01/09 10:42:50;;;;;;;9.13;8.73;;;;;;;;;;6140089;29;20039;-92
2024/01/09 10:45:53;;;;;;;9.02;8.50;;;;;;;;;;6138444;28;20525;-92
2024/01/09 10:48:56;;;;;;;8.15;7.75;;;;;;;;;;6149405;29;20055;-92
2024/01/09 10:51:58;;;;;;;9.02;8.48;;;;;;;;;;6138561;28;20468;-92
2024/01/09 10:55:00;;;;;;;8.18;7.65;;;;;;;;;;6130659;28;20092;-91
2024/01/09 10:58:02;;;;;;;8.75;8.18;;;;;;;;;;6134415;28;20568;-92
2024/01/09 11:01:04;;;;;;;9.30;8.48;;;;;;;;;;6135554;28;20035;-92
2024/01/09 11:04:07;;;;;;;7.82;7.30;;;;;;;;;;6131855;28;20529;-92
2024/01/09 11:07:14;;;;;;;8.75;8.25;;;;;;;;;;6140083;28;20049;-92
2024/01/09 11:10:19;;;;;;;8.90;8.35;;;;;;;;;;6132178;28;20421;-92
2024/01/09 11:13:22;;;;;;;9.30;8.40;;;;;;;;;;6135144;28;20043;-92
2024/01/09 11:16:25;;;;;;;10.57;9.55;;;;;;;;;;6135059;28;20047;-91
2024/01/09 11:19:27;;;;;;;11.45;9.57;;;;;;;;;;6140365;29;20047;-92
2024/01/09 11:22:33;;;;;;;10.35;9.48;;;;;;;;;;6134349;28;20529;-92
2024/01/09 11:25:35;;;;;;;9.73;9.02;;;;;;;;;;6136265;28;20051;-92
2024/01/09 11:28:38;;;;;;;9.20;8.70;;;;;;;;;;6136353;28;20502;-92
2024/01/09 11:31:41;;;;;;;10.23;9.63;;;;;;;;;;6141760;28;20036;-92
2024/01/09 11:34:46;;;;;;;9.15;8.68;;;;;;;;;;6134154;29;20059;-92
2024/01/09 11:37:49;;;;;;;9.68;8.77;;;;;;;;;;6141432;28;20509;-92
2024/01/09 11:40:52;;;;;;;9.45;9.05;;;;;;;;;;6143940;28;20441;-92
2024/01/09 11:44:01;;;;;;;9.65;9.05;;;;;;;;;;6141920;29;20528;-92
2024/01/09 11:47:03;;;;;;;11.13;10.30;;;;;;;;;;6140662;29;20509;-91
2024/01/09 11:50:09;;;;;;;11.77;11.05;;;;;;;;;;6143566;28;20043;-92
2024/01/09 11:53:11;;;;;;;11.20;10.50;;;;;;;;;;6144466;28;20047;-92
2024/01/09 11:56:14;;;;;;;10.63;9.90;;;;;;;;;;6145046;28;20544;-92
2024/01/09 11:59:17;;;;;;;11.77;10.60;;;;;;;;;;6146613;28;20095;-91
2024/01/09 12:02:21;;;;;;;9.75;9.35;;;;;;;;;;6142600;28;20077;-91
2024/01/09 12:05:23;;;;;;;10.10;9.50;;;;;;;;;;6140775;28;20547;-91
2024/01/09 12:08:25;;;;;;;10.45;9.85;;;;;;;;;;6143811;28;20122;-91
2024/01/09 12:11:27;;;;;;;8.95;8.27;;;;;;;;;;6144451;28;20039;-91
2024/01/09 12:14:29;;;;;;;10.68;9.98;;;;;;;;;;6124685;28;20162;-91
2024/01/09 12:17:34;;;;;;;9.27;8.77;;;;;;;;;;6148287;28;20051;-91
2024/01/09 12:20:36;;;;;;;10.98;9.93;;;;;;;;;;6144256;28;20050;-91
2024/01/09 12:23:38;;;;;;;13.52;10.63;;;;;;;;;;6142995;29;20099;-91
2024/01/09 12:26:59;;;;;;;10.20;9.60;;;;;;;;;;6142453;28;20035;-91
2024/01/09 12:30:04;;;;;;;8.93;8.30;;;;;;;;;;6142515;28;20158;-91
2024/01/09 12:33:08;;;;;;;10.65;10.05;;;;;;;;;;6122476;29;20417;-91
2024/01/09 12:36:10;;;;;;;9.82;9.32;;;;;;;;;;6137498;28;20409;-91
2024/01/09 12:39:15;;;;;;;9.70;9.20;;;;;;;;;;6137204;29;20101;-91
2024/01/09 12:42:17;;;;;;;9.45;8.88;;;;;;;;;;6142844;28;20506;-91
2024/01/09 12:45:20;;;;;;;10.35;9.73;;;;;;;;;;6139884;28;20043;-91
2024/01/09 12:48:22;;;;;;;8.73;8.32;;;;;;;;;;6144197;28;20049;-91
2024/01/09 12:51:24;;;;;;;9.95;9.35;;;;;;;;;;6140677;28;20552;-91
2024/01/09 12:54:27;;;;;;;9.52;9.07;;;;;;;;;;6136568;28;20047;-91
2024/01/09 12:57:29;;;;;;;10.15;9.35;;;;;;;;;;6138875;28;20423;-91
2024/01/09 13:00:30;;;;;;;10.75;8.98;;;;;;;;;;6139015;29;20051;-91
2024/01/09 13:03:33;;;;;;;8.45;7.97;;;;;;;;;;6135227;29;20130;-91
2024/01/09 13:06:36;;;;;;;9.70;8.48;;;;;;;;;;6139864;28;20048;-91
2024/01/09 13:09:43;;;;;;;8.63;8.05;;;;;;;;;;6137094;29;20054;-91
2024/01/09 13:12:46;;;;;;;9.77;9.18;;;;;;;;;;6119701;29;20058;-91
2024/01/09 13:15:48;;;;;;;9.20;8.70;;;;;;;;;;6143127;28;20039;-91
2024/01/09 13:18:50;;;;;;;9.85;9.18;;;;;;;;;;6122675;29;20048;-91
2024/01/09 13:21:53;;;;;;;8.20;7.63;;;;;;;;;;6129428;28;20047;-91
2024/01/09 13:25:14;;;;;;;8.20;7.80;;;;;;;;;;6132807;29;20109;-91
2024/01/09 13:28:16;;;;;;;8.60;7.85;;;;;;;;;;6141882;29;20043;-91
2024/01/09 13:31:19;;;;;;;10.15;8.70;;;;;;;;;;6140220;28;20058;-91
2024/01/09 13:34:22;;;;;;;8.65;8.25;;;;;;;;;;6140436;29;20043;-91
2024/01/09 13:37:24;;;;;;;8.30;7.63;;;;;;;;;;6151988;28;20043;-91
2024/01/09 13:40:26;;;;;;;9.57;8.75;;;;;;;;;;6150618;28;20051;-91
2024/01/09 13:43:28;;;;;;;7.75;7.45;;;;;;;;;;6139690;29;20129;-91
2024/01/09 13:46:30;;;;;;;8.15;7.60;;;;;;;;;;6138315;28;20413;-91
2024/01/09 13:49:32;;;;;;;8.20;7.65;;;;;;;;;;6141640;28;20047;-91
2024/01/09 13:52:34;;;;;;;9.77;9.02;;;;;;;;;;6137805;28;20165;-91
2024/01/09 13:55:36;;;;;;;9.27;8.75;;;;;;;;;;6133657;29;20050;-91
2024/01/09 13:58:38;;;;;;;9.55;8.65;;;;;;;;;;6138401;28;20046;-92
2024/01/09 14:01:40;;;;;;;9.43;8.60;;;;;;;;;;6137088;28;20074;-91
2024/01/09 14:04:45;;;;;;;9.20;8.40;;;;;;;;;;6138254;29;20282;-91
2024/01/09 14:07:48;;;;;;;8.73;8.23;;;;;;;;;;6139849;28;20737;-91
2024/01/09 14:10:50;;;;;;;8.10;7.53;;;;;;;;;;6140138;28;20094;-91
2024/01/09 14:13:52;;;;;;;9.18;8.40;;;;;;;;;;6143037;28;20046;-91
2024/01/09 14:16:54;;;;;;;9.38;8.88;;;;;;;;;;6139841;28;20051;-91
2024/01/09 14:19:56;;;;;;;7.28;6.85;;;;;;;;;;6143420;28;20514;-91
2024/01/09 14:22:59;;;;;;;7.93;7.53;;;;;;;;;;6136843;28;20512;-91
2024/01/09 14:26:01;;;;;;;7.80;7.28;;;;;;;;;;6148038;28;20517;-91
2024/01/09 14:29:02;;;;;;;9.30;8.75;;;;;;;;;;6140532;28;20039;-91
2024/01/09 14:32:05;;;;;;;8.57;7.63;;;;;;;;;;6138662;28;20043;-91
2024/01/09 14:35:07;;;;;;;9.65;9.00;;;;;;;;;;6117800;28;20047;-91
2024/01/09 14:38:09;;;;;;;8.30;7.80;;;;;;;;;;6137986;28;20142;-91
2024/01/09 14:41:11;;;;;;;10.40;8.30;;;;;;;;;;6142582;28;20051;-91
2024/01/09 14:44:13;;;;;;;7.47;7.18;;;;;;;;;;6139555;28;20036;-91
2024/01/09 14:47:15;;;;;;;8.60;8.20;;;;;;;;;;6139039;28;20087;-91
2024/01/09 14:50:17;;;;;;;11.98;8.80;;;;;;;;;;6121633;28;20058;-91
2024/01/09 14:53:19;;;;;;;9.18;8.48;;;;;;;;;;6138401;29;20043;-92
2024/01/09 14:56:22;;;;;;;8.77;8.25;;;;;;;;;;6138281;28;20436;-92
2024/01/09 14:59:24;;;;;;;9.77;9.23;;;;;;;;;;6140567;28;20054;-91
2024/01/09 15:02:26;;;;;;;14.48;10.35;;;;;;;;;;6138252;28;20053;-91
2024/01/09 15:05:29;;;;;;;8.32;7.82;;;;;;;;;;6135959;28;20035;-92
2024/01/09 15:08:31;;;;;;;13.55;8.70;;;;;;;;;;6141225;28;20047;-91
2024/01/09 15:11:34;;;;;;;8.60;8.00;;;;;;;;;;6138066;28;20043;-91
2024/01/09 15:14:36;;;;;;;8.40;7.90;;;;;;;;;;6142221;28;20139;-90
2024/01/09 15:17:38;;;;;;;8.40;7.80;;;;;;;;;;6132019;28;20122;-91
2024/01/09 15:20:43;;;;;;;13.70;8.55;;;;;;;;;;6140362;28;20130;-91
2024/01/09 15:23:45;;;;;;;8.85;8.23;;;;;;;;;;6136018;28;20514;-92
2024/01/09 15:26:49;;;;;;;8.70;8.07;;;;;;;;;;6130784;29;20051;-91
2024/01/09 15:29:51;;;;;;;8.60;8.15;;;;;;;;;;6138975;28;20202;-91
2024/01/09 15:32:53;;;;;;;8.27;7.70;;;;;;;;;;6141244;28;20043;-91
2024/01/09 15:35:55;;;;;;;7.78;7.47;;;;;;;;;;6139881;28;20054;-91
2024/01/09 15:38:57;;;;;;;8.02;7.68;;;;;;;;;;6132816;29;20198;-91
2024/01/09 15:41:59;;;;;;;8.90;8.40;;;;;;;;;;6149049;28;20047;-92
2024/01/09 15:45:01;;;;;;;8.13;7.82;;;;;;;;;;6137817;28;20054;-91
2024/01/09 15:48:05;;;;;;;8.80;8.40;;;;;;;;;;6136488;29;20043;-91
2024/01/09 15:51:06;;;;;;;9.38;8.80;;;;;;;;;;6140871;29;20047;-91
2024/01/09 15:54:08;;;;;;;10.68;9.88;;;;;;;;;;6140811;29;20039;-90
2024/01/09 15:57:11;;;;;;;9.32;8.75;;;;;;;;;;6135944;28;20111;-90
2024/01/09 16:00:16;;;;;;;8.93;8.43;;;;;;;;;;6136670;28;20409;-90
2024/01/09 16:03:19;;;;;;;9.27;8.88;;;;;;;;;;6138369;28;20047;-92
2024/01/09 16:06:21;;;;;;;10.13;9.63;;;;;;;;;;6130721;29;20086;-92
2024/01/09 16:09:24;;;;;;;9.77;8.75;;;;;;;;;;6136357;28;20083;-91
2024/01/09 16:12:26;;;;;;;10.50;9.82;;;;;;;;;;6141287;28;20055;-91
2024/01/09 16:15:29;;;;;;;9.80;9.23;;;;;;;;;;6139053;28;20043;-91
2024/01/09 16:18:30;;;;;;;9.75;9.25;;;;;;;;;;6138447;28;20057;-91
2024/01/09 16:21:32;;;;;;;10.27;9.40;;;;;;;;;;6139737;28;20186;-91
2024/01/09 16:24:34;;;;;;;10.10;9.50;;;;;;;;;;6138557;28;20047;-91
2024/01/09 16:27:36;;;;;;;10.23;9.73;;;;;;;;;;6141059;28;20039;-91
2024/01/09 16:30:39;;;;;;;10.63;9.85;;;;;;;;;;6138740;28;20051;-91
2024/01/09 16:33:43;;;;;;;9.77;9.38;;;;;;;;;;6145494;29;20047;-91
2024/01/09 16:36:46;;;;;;;8.88;8.43;;;;;;;;;;6142606;28;20105;-91
2024/01/09 16:39:47;;;;;;;9.95;8.88;;;;;;;;;;6138850;28;20035;-91
2024/01/09 16:42:49;;;;;;;9.32;8.93;;;;;;;;;;6137890;29;20042;-94
2024/01/09 16:45:52;;;;;;;10.02;9.23;;;;;;;;;;6140643;28;20043;-93
2024/01/09 16:48:55;;;;;;;9.45;8.95;;;;;;;;;;6136106;29;20114;-94
2024/01/09 16:51:57;;;;;;;8.52;7.93;;;;;;;;;;6136490;28;20139;-94
2024/01/09 16:54:59;;;;;;;8.13;7.63;;;;;;;;;;6142046;28;20094;-94
2024/01/09 16:58:02;;;;;;;8.65;7.90;;;;;;;;;;6142831;28;20043;-94
2024/01/09 17:01:04;;;;;;;16.95;15.80;;;;;;;;;;6134874;28;20073;-94
2024/01/09 17:04:06;;;;;;;9.98;9.38;;;;;;;;;;6134227;28;20247;-94
2024/01/09 17:07:09;;;;;;;9.95;9.35;;;;;;;;;;6134572;28;20039;-94
2024/01/09 17:10:11;;;;;;;11.20;10.25;;;;;;;;;;6140143;28;20039;-94
2024/01/09 17:13:16;;;;;;;9.65;8.95;;;;;;;;;;6139403;28;20501;-93
2024/01/09 17:16:18;;;;;;;8.93;8.45;;;;;;;;;;6141750;28;20050;-93
2024/01/09 17:19:27;;;;;;;10.10;9.43;;;;;;;;;;6152225;28;20378;-92
2024/01/09 17:22:28;;;;;;;9.98;9.48;;;;;;;;;;6132168;28;20051;-92
2024/01/09 17:25:30;;;;;;;9.43;8.95;;;;;;;;;;6142696;28;20125;-94
2024/01/09 17:28:32;;;;;;;9.20;8.73;;;;;;;;;;6143313;29;20075;-93
2024/01/09 17:31:34;;;;;;;10.95;9.43;;;;;;;;;;6137166;28;20163;-94
2024/01/09 17:34:36;;;;;;;14.57;11.32;;;;;;;;;;6139615;28;20047;-94
2024/01/09 17:37:39;;;;;;;12.23;11.52;;;;;;;;;;6130107;28;20054;-94
2024/01/09 17:40:41;;;;;;;12.55;11.85;;;;;;;;;;6151269;28;20678;-93
2024/01/09 17:43:43;;;;;;;14.07;13.10;;;;;;;;;;6131845;28;20047;-93
2024/01/09 17:46:44;;;;;;;11.82;11.23;;;;;;;;;;6133886;28;20420;-93
2024/01/09 17:49:46;;;;;;;13.88;12.07;;;;;;;;;;6136318;29;20051;-93
2024/01/09 17:52:50;;;;;;;11.23;10.52;;;;;;;;;;6128777;28;20059;-93
2024/01/09 17:55:52;;;;;;;11.82;11.23;;;;;;;;;;6136796;29;20532;-94
2024/01/09 17:58:53;;;;;;;11.98;11.07;;;;;;;;;;6136382;29;20043;-93
2024/01/09 18:01:55;;;;;;;14.43;13.43;;;;;;;;;;6150065;28;20031;-93
2024/01/09 18:04:58;;;;;;;11.20;10.60;;;;;;;;;;6138722;28;20047;-93
2024/01/09 18:08:03;;;;;;;11.18;10.48;;;;;;;;;;6139219;28;20525;-93